Aviation Digital Data Service (ADDS)

Output produced by METARs form (1747 UTC 25 February 2018)
found at http://aviationweather.gov/adds/metars/
 
KIAH 251653Z 04007KT 10SM SCT007 OVC020 14/13 A3002 RMK AO2 LTG DSNT N RAE49 SLP166 P0005 T01440133 $